createdAt,value
2018-01-26T00:01:32.752Z,90.34
2018-01-26T00:04:03.801Z,90.56
2018-01-26T00:06:33.767Z,90.66
2018-01-26T00:09:03.436Z,90.68
2018-01-26T00:11:33.358Z,90.23
2018-01-26T00:14:03.396Z,89.98
2018-01-26T00:16:33.288Z,90.14
2018-01-26T00:19:03.232Z,90.03
2018-01-26T00:21:33.354Z,90.05
2018-01-26T00:24:03.205Z,89.95
2018-01-26T00:26:33.038Z,89.60
2018-01-26T00:29:02.962Z,88.32
2018-01-26T00:31:32.802Z,89.24
2018-01-26T00:34:02.665Z,90.28
2018-01-26T00:36:32.629Z,89.86
2018-01-26T00:39:02.597Z,90.14
2018-01-26T00:41:32.588Z,90.26
2018-01-26T00:44:03.027Z,90.09
2018-01-26T00:46:32.915Z,90.39
2018-01-26T00:49:02.862Z,90.61
2018-01-26T00:51:32.754Z,90.60
2018-01-26T00:54:02.639Z,90.19
2018-01-26T00:56:32.749Z,89.80
2018-01-26T00:59:02.671Z,90.16
2018-01-26T01:01:32.657Z,90.21
2018-01-26T01:04:02.902Z,89.87
2018-01-26T01:06:32.799Z,89.35
2018-01-26T01:09:02.731Z,90.32
2018-01-26T01:11:32.565Z,90.52
2018-01-26T01:14:02.372Z,90.26
2018-01-26T01:16:32.304Z,89.84
2018-01-26T01:19:02.304Z,90.06
2018-01-26T01:21:32.191Z,89.73
2018-01-26T01:24:02.088Z,89.76
2018-01-26T01:26:32.001Z,89.69
2018-01-26T01:29:01.865Z,89.30
2018-01-26T01:31:31.745Z,89.40
2018-01-26T01:34:01.716Z,89.55
2018-01-26T01:36:31.460Z,89.58
2018-01-26T01:39:01.370Z,90.01
2018-01-26T01:41:31.259Z,90.43
2018-01-26T01:44:01.241Z,90.57
2018-01-26T01:46:31.231Z,90.73
2018-01-26T01:49:12.281Z,90.51
2018-01-26T01:51:41.950Z,90.30
2018-01-26T01:54:11.852Z,90.11
2018-01-26T01:56:41.870Z,90.31
2018-01-26T01:59:11.770Z,90.22
2018-01-26T02:01:41.452Z,89.95
2018-01-26T02:04:11.698Z,88.82
2018-01-26T02:06:41.618Z,89.55
2018-01-26T02:09:11.489Z,89.69
2018-01-26T02:11:41.377Z,89.90
2018-01-26T02:14:11.223Z,90.14
2018-01-26T02:16:41.741Z,90.21
2018-01-26T02:19:11.613Z,90.27
2018-01-26T02:21:41.461Z,90.01
2018-01-26T02:24:11.349Z,90.26
2018-01-26T02:26:41.237Z,89.87
2018-01-26T02:29:11.072Z,89.74
2018-01-26T02:31:41.149Z,90.51
2018-01-26T02:34:11.819Z,90.73
2018-01-26T02:36:41.779Z,90.83
2018-01-26T02:39:11.817Z,90.87
2018-01-26T02:41:41.673Z,90.56
2018-01-26T02:44:11.643Z,90.60
2018-01-26T02:46:41.510Z,90.98
2018-01-26T02:49:10.795Z,91.16
2018-01-26T02:51:40.709Z,91.17
2018-01-26T02:54:10.809Z,90.36
2018-01-26T02:56:40.735Z,90.48
2018-01-26T02:59:10.896Z,90.42
2018-01-26T03:01:41.142Z,90.36
2018-01-26T03:04:11.183Z,90.06
2018-01-26T03:06:41.336Z,89.41
2018-01-26T03:09:11.447Z,89.57
2018-01-26T03:11:41.436Z,89.73
2018-01-26T03:14:11.438Z,89.51
2018-01-26T03:16:41.301Z,89.54
2018-01-26T03:19:11.181Z,89.34
2018-01-26T03:21:41.153Z,89.58
2018-01-26T03:24:10.883Z,89.68
2018-01-26T03:26:40.829Z,89.77
2018-01-26T03:29:10.781Z,89.70
2018-01-26T03:31:40.481Z,89.65
2018-01-26T03:34:10.378Z,89.51
2018-01-26T03:36:40.519Z,89.74
2018-01-26T03:39:10.423Z,89.92
2018-01-26T03:41:40.398Z,90.21
2018-01-26T03:44:12.325Z,90.27
2018-01-26T03:46:42.373Z,90.32
2018-01-26T03:49:12.249Z,90.58
2018-01-26T03:51:42.265Z,91.09
2018-01-26T03:54:12.392Z,90.57
2018-01-26T03:56:42.312Z,90.66
2018-01-26T03:59:12.732Z,90.41
2018-01-26T04:01:42.826Z,90.75
2018-01-26T04:07:45.413Z,90.59
2018-01-26T04:10:16.299Z,90.38
2018-01-26T04:12:46.311Z,90.25
2018-01-26T04:15:16.183Z,90.55
2018-01-26T04:17:46.164Z,91.23
2018-01-26T04:20:16.042Z,91.07
2018-01-26T04:22:46.738Z,90.98
2018-01-26T04:25:16.728Z,91.11
2018-01-26T04:27:46.615Z,91.05
2018-01-26T04:30:16.314Z,90.96
2018-01-26T04:32:46.326Z,90.86
2018-01-26T04:35:16.245Z,90.63
2018-01-26T04:37:46.142Z,90.67
2018-01-26T04:40:16.067Z,90.35
2018-01-26T04:42:46.030Z,90.91
2018-01-26T04:45:15.991Z,91.00
2018-01-26T04:47:46.056Z,91.03
2018-01-26T04:50:16.665Z,91.60
2018-01-26T04:52:46.627Z,91.08
2018-01-26T04:55:16.614Z,91.52
2018-01-26T04:57:46.502Z,91.59
2018-01-26T05:00:16.546Z,91.16
2018-01-26T05:02:46.582Z,90.84
2018-01-26T05:05:16.700Z,90.92
2018-01-26T05:07:46.614Z,91.08
2018-01-26T05:10:16.613Z,91.02
2018-01-26T05:12:46.588Z,90.85
2018-01-26T05:15:16.763Z,90.74
2018-01-26T05:17:47.026Z,91.13
2018-01-26T05:22:52.214Z,91.08
2018-01-26T05:25:25.622Z,91.78
2018-01-26T05:27:55.882Z,91.66
2018-01-26T05:30:25.899Z,92.05
2018-01-26T05:33:01.335Z,91.69
2018-01-26T05:35:35.737Z,91.35
2018-01-26T05:38:06.681Z,91.15
2018-01-26T05:40:37.453Z,91.24
2018-01-26T05:43:07.464Z,91.15
2018-01-26T05:45:38.327Z,91.62
2018-01-26T05:48:08.267Z,91.40
2018-01-26T05:50:38.264Z,91.58
2018-01-26T05:53:08.423Z,91.46
2018-01-26T05:55:39.082Z,90.86
2018-01-26T05:58:09.733Z,90.76
2018-01-26T06:00:39.714Z,91.09
2018-01-26T06:03:10.451Z,90.70
2018-01-26T06:05:40.626Z,90.84
2018-01-26T06:08:10.553Z,90.69
2018-01-26T06:10:40.611Z,91.18
2018-01-26T06:13:10.352Z,91.32
2018-01-26T06:15:41.172Z,91.08
2018-01-26T06:18:11.679Z,91.11
2018-01-26T06:20:41.654Z,91.25
2018-01-26T06:23:11.973Z,91.22
2018-01-26T06:25:41.761Z,90.89
2018-01-26T06:28:12.384Z,90.72
2018-01-26T06:30:42.569Z,91.30
2018-01-26T06:33:12.539Z,91.63
2018-01-26T06:35:42.649Z,90.94
2018-01-26T06:38:12.606Z,90.71
2018-01-26T06:40:42.578Z,91.13
2018-01-26T06:43:12.643Z,91.36
2018-01-26T06:45:43.155Z,91.14
2018-01-26T06:48:13.257Z,91.10
2018-01-26T06:50:43.112Z,91.31
2018-01-26T06:53:13.654Z,91.85
2018-01-26T06:55:43.867Z,91.01
2018-01-26T06:58:13.803Z,91.74
2018-01-26T07:00:43.644Z,91.70
2018-01-26T07:03:13.674Z,92.06
2018-01-26T07:05:44.379Z,91.70
2018-01-26T07:08:14.209Z,91.54
2018-01-26T07:10:44.051Z,90.62
2018-01-26T07:13:15.420Z,90.49
2018-01-26T07:15:45.436Z,90.74
2018-01-26T07:18:15.997Z,90.76
2018-01-26T07:20:49.828Z,90.33
2018-01-26T07:23:20.001Z,90.44
2018-01-26T07:25:49.873Z,89.28
2018-01-26T07:28:19.750Z,89.89
2018-01-26T07:30:49.856Z,90.03
2018-01-26T07:33:19.700Z,89.87
2018-01-26T07:35:49.757Z,90.16
2018-01-26T07:38:19.724Z,89.26
2018-01-26T07:40:49.689Z,88.95
2018-01-26T07:43:19.816Z,88.80
2018-01-26T07:45:50.840Z,88.25
2018-01-26T07:48:20.703Z,88.99
2018-01-26T07:50:50.528Z,89.37
2018-01-26T07:53:20.474Z,88.49
2018-01-26T07:55:50.355Z,88.51
2018-01-26T07:58:20.276Z,86.79
2018-01-26T08:00:50.224Z,87.19
2018-01-26T08:03:20.139Z,88.09
2018-01-26T08:05:50.077Z,88.47
2018-01-26T08:08:20.907Z,88.35
2018-01-26T08:10:52.001Z,88.13
2018-01-26T08:13:23.014Z,86.77
2018-01-26T08:15:53.966Z,87.55
2018-01-26T08:18:25.323Z,87.17
2018-01-26T08:20:55.794Z,86.67
2018-01-26T08:23:26.324Z,87.16
2018-01-26T08:25:56.831Z,87.93
2018-01-26T08:28:28.224Z,86.80
2018-01-26T08:30:59.862Z,86.71
2018-01-26T08:33:33.569Z,86.01
2018-01-26T08:36:03.653Z,85.84
2018-01-26T08:38:34.416Z,86.28
2018-01-26T08:41:05.837Z,86.21
2018-01-26T08:43:35.607Z,85.68
2018-01-26T08:46:06.153Z,86.67
2018-01-26T08:48:36.958Z,86.49
2018-01-26T08:51:06.836Z,85.70
2018-01-26T08:53:36.864Z,84.74
2018-01-26T08:56:06.707Z,85.12
2018-01-26T08:58:39.094Z,85.36
2018-01-26T09:01:09.018Z,83.76
2018-01-26T09:03:38.886Z,84.80
2018-01-26T09:06:09.227Z,84.00
2018-01-26T09:08:40.096Z,82.72
2018-01-26T09:11:09.994Z,80.69
2018-01-26T09:13:40.079Z,80.61
2018-01-26T09:16:10.150Z,79.24
2018-01-26T09:18:40.061Z,78.26
2018-01-26T09:21:10.018Z,77.15
2018-01-26T09:23:39.981Z,77.71
2018-01-26T09:26:09.890Z,72.90
2018-01-26T09:28:39.734Z,75.15
2018-01-26T09:31:10.042Z,71.73
2018-01-26T09:33:40.276Z,74.56
2018-01-26T09:36:10.434Z,75.77
2018-01-26T09:38:40.334Z,75.80
2018-01-26T09:41:10.204Z,74.93
2018-01-26T09:43:40.056Z,72.25
2018-01-26T09:46:09.927Z,70.17
2018-01-26T09:48:39.720Z,70.46
2018-01-26T09:51:09.923Z,69.01
2018-01-26T09:53:39.858Z,66.23
2018-01-26T09:56:10.387Z,65.88
2018-01-26T09:58:40.278Z,61.43
2018-01-26T10:01:10.423Z,59.27
2018-01-26T10:03:40.313Z,59.11
2018-01-26T10:06:10.290Z,59.59
2018-01-26T10:08:40.137Z,58.32
2018-01-26T10:11:10.007Z,59.67
2018-01-26T10:13:39.951Z,58.22
2018-01-26T10:16:09.618Z,57.84
2018-01-26T10:18:39.235Z,58.84
2018-01-26T10:21:09.321Z,62.18
2018-01-26T10:23:39.186Z,62.28
2018-01-26T10:26:09.194Z,64.93
2018-01-26T10:28:39.177Z,64.40
2018-01-26T10:31:09.361Z,63.44
2018-01-26T10:33:40.084Z,64.40
2018-01-26T10:36:10.031Z,63.59
2018-01-26T10:38:40.025Z,62.54
2018-01-26T10:41:10.010Z,63.96
2018-01-26T10:43:39.953Z,63.51
2018-01-26T10:46:09.992Z,63.39
2018-01-26T10:48:40.389Z,64.53
2018-01-26T10:51:10.423Z,63.78
2018-01-26T10:53:40.921Z,65.38
2018-01-26T10:56:10.842Z,64.09
2018-01-26T10:58:41.374Z,60.71
2018-01-26T11:01:10.978Z,62.76
2018-01-26T11:03:40.930Z,62.44
2018-01-26T11:06:10.939Z,63.97
2018-01-26T11:08:40.824Z,60.41
2018-01-26T11:11:10.717Z,57.96
2018-01-26T11:13:40.644Z,57.84
2018-01-26T11:16:10.512Z,54.40
2018-01-26T11:18:40.012Z,54.42
2018-01-26T11:21:09.921Z,58.63
2018-01-26T11:23:39.635Z,60.81
2018-01-26T11:26:10.281Z,60.46
2018-01-26T11:28:40.154Z,58.99
2018-01-26T11:31:10.120Z,55.68
2018-01-26T11:33:39.969Z,56.03
2018-01-26T11:36:09.834Z,57.12
2018-01-26T11:38:39.820Z,54.88
2018-01-26T11:41:09.691Z,52.88
2018-01-26T11:43:39.435Z,54.13
2018-01-26T11:46:13.362Z,55.08
2018-01-26T11:48:44.106Z,52.65
2018-01-26T11:51:14.241Z,55.66
2018-01-26T11:53:44.245Z,58.19
2018-01-26T11:56:14.078Z,59.02
2018-01-26T11:58:43.935Z,60.74
2018-01-26T12:01:13.827Z,62.98
2018-01-26T12:03:43.822Z,66.24
2018-01-26T12:06:13.716Z,66.61
2018-01-26T12:08:43.681Z,68.51
2018-01-26T12:11:13.635Z,71.76
2018-01-26T12:13:43.858Z,74.70
2018-01-26T12:16:18.110Z,73.58
2018-01-26T12:18:48.053Z,74.63
2018-01-26T12:21:17.957Z,75.94
2018-01-26T12:23:47.994Z,75.72
2018-01-26T12:26:17.917Z,76.87
2018-01-26T12:28:48.896Z,76.85
2018-01-26T12:31:18.623Z,79.94
2018-01-26T12:33:48.549Z,77.55
2018-01-26T12:36:18.574Z,77.18
2018-01-26T12:38:48.665Z,78.20
2018-01-26T12:41:18.615Z,77.30
2018-01-26T12:43:48.672Z,75.47
2018-01-26T12:46:18.615Z,77.69
2018-01-26T12:48:48.489Z,77.21
2018-01-26T12:51:18.386Z,76.84
2018-01-26T12:53:48.532Z,76.93
2018-01-26T12:56:18.533Z,76.53
2018-01-26T12:58:48.620Z,76.83
2018-01-26T13:01:18.514Z,77.35
2018-01-26T13:03:48.437Z,77.88
2018-01-26T13:06:18.197Z,77.01
2018-01-26T13:08:48.093Z,77.44
2018-01-26T13:11:18.219Z,77.47
2018-01-26T13:13:48.201Z,76.93
2018-01-26T13:16:18.128Z,78.42
2018-01-26T13:18:48.298Z,78.12
2018-01-26T13:21:18.713Z,76.67
2018-01-26T13:23:49.713Z,77.15
2018-01-26T13:26:19.620Z,77.68
2018-01-26T13:28:49.458Z,77.74
2018-01-26T13:31:19.313Z,78.00
2018-01-26T13:33:49.256Z,77.19
2018-01-26T13:36:19.282Z,77.07
2018-01-26T13:38:49.943Z,78.23
2018-01-26T13:41:19.825Z,80.62
2018-01-26T13:43:49.776Z,80.10
2018-01-26T13:46:19.801Z,80.17
2018-01-26T13:48:49.655Z,79.58
2018-01-26T13:51:19.539Z,78.90
2018-01-26T13:53:49.392Z,81.02
2018-01-26T13:56:19.216Z,81.55
2018-01-26T13:58:48.873Z,82.50
2018-01-26T14:01:18.739Z,81.93
2018-01-26T14:03:48.581Z,82.99
2018-01-26T14:06:18.393Z,82.63
2018-01-26T14:08:48.255Z,82.88
2018-01-26T14:11:19.218Z,82.85
2018-01-26T14:13:49.973Z,81.88
2018-01-26T14:16:21.222Z,82.28
2018-01-26T14:18:51.414Z,82.81
2018-01-26T14:21:22.090Z,84.39
2018-01-26T14:23:52.452Z,85.18
2018-01-26T14:26:22.459Z,84.91
2018-01-26T14:28:52.723Z,85.17
2018-01-26T14:31:22.496Z,85.54
2018-01-26T14:33:52.495Z,85.82
2018-01-26T14:36:22.649Z,85.42
2018-01-26T14:38:52.769Z,85.65
2018-01-26T14:41:23.732Z,85.45
2018-01-26T14:43:54.089Z,84.40
2018-01-26T14:46:24.184Z,84.60
2018-01-26T14:48:55.012Z,84.47
2018-01-26T14:51:25.650Z,84.57
2018-01-26T14:53:55.814Z,84.08
2018-01-26T14:56:26.989Z,85.09
2018-01-26T14:58:57.366Z,84.86
2018-01-26T15:01:27.807Z,83.62
2018-01-26T15:03:58.043Z,84.51
2018-01-26T15:06:28.104Z,84.84
2018-01-26T15:08:57.997Z,84.88
2018-01-26T15:11:27.874Z,84.02
2018-01-26T15:13:59.288Z,82.23
2018-01-26T15:16:30.908Z,83.65
2018-01-26T15:19:01.204Z,84.57
2018-01-26T15:21:31.439Z,84.88
2018-01-26T15:24:02.722Z,85.05
2018-01-26T15:26:33.114Z,85.71
2018-01-26T15:29:03.539Z,86.20
2018-01-26T15:31:33.739Z,85.48
2018-01-26T15:34:03.698Z,84.93
2018-01-26T15:36:33.673Z,85.92
2018-01-26T15:39:03.223Z,85.83
2018-01-26T15:41:34.068Z,85.96
2018-01-26T15:44:04.169Z,86.18
2018-01-26T15:46:33.808Z,86.00
2018-01-26T15:49:03.844Z,85.81
2018-01-26T15:51:33.817Z,86.17
2018-01-26T15:54:03.687Z,85.97
2018-01-26T15:56:33.583Z,86.16
2018-01-26T15:59:03.554Z,85.67
2018-01-26T16:01:33.507Z,86.40
2018-01-26T16:04:03.325Z,87.10
2018-01-26T16:06:33.128Z,87.13
2018-01-26T16:09:03.501Z,86.92
2018-01-26T16:11:33.231Z,86.83
2018-01-26T16:14:03.490Z,87.04
2018-01-26T16:16:33.624Z,87.59
2018-01-26T16:19:03.275Z,87.88
2018-01-26T16:21:33.200Z,87.65
2018-01-26T16:24:04.027Z,87.94
2018-01-26T16:26:34.095Z,88.32
2018-01-26T16:29:05.010Z,88.46
2018-01-26T16:31:34.985Z,88.95
2018-01-26T16:34:05.007Z,88.36
2018-01-26T16:36:35.154Z,88.68
2018-01-26T16:39:04.947Z,88.70
2018-01-26T16:41:34.955Z,88.79
2018-01-26T16:44:04.633Z,89.17
2018-01-26T16:46:34.455Z,89.28
2018-01-26T16:49:04.315Z,89.27
2018-01-26T16:51:34.134Z,89.25
2018-01-26T16:54:04.186Z,89.22
2018-01-26T16:56:34.207Z,89.03
2018-01-26T16:59:03.864Z,88.93
2018-01-26T17:01:33.687Z,89.87
2018-01-26T17:04:03.709Z,89.28
2018-01-26T17:06:34.403Z,88.73
2018-01-26T17:09:05.134Z,87.90
2018-01-26T17:11:35.329Z,87.85
2018-01-26T17:14:05.608Z,88.20
2018-01-26T17:16:36.008Z,87.27
2018-01-26T17:19:06.425Z,87.58
2018-01-26T17:21:36.634Z,86.98
2018-01-26T17:24:07.143Z,87.41
2018-01-26T17:26:37.744Z,88.21
2018-01-26T17:29:08.190Z,88.38
2018-01-26T17:31:38.181Z,88.77
2018-01-26T17:34:08.089Z,88.93
2018-01-26T17:36:38.065Z,89.01
2018-01-26T17:39:08.432Z,88.70
2018-01-26T17:41:38.262Z,88.62
2018-01-26T17:44:08.114Z,88.71
2018-01-26T17:46:37.949Z,89.01
2018-01-26T17:49:08.038Z,89.13
2018-01-26T17:51:37.596Z,89.05
2018-01-26T17:54:07.471Z,89.84
2018-01-26T17:56:37.310Z,89.53
2018-01-26T17:59:07.113Z,89.34
2018-01-26T18:01:37.368Z,89.28
2018-01-26T18:04:07.031Z,89.69
2018-01-26T18:06:36.833Z,89.67
2018-01-26T18:09:06.361Z,89.88
2018-01-26T18:11:36.187Z,90.03
2018-01-26T18:14:05.903Z,90.21
2018-01-26T18:16:35.647Z,90.05
2018-01-26T18:19:05.456Z,90.39
2018-01-26T18:21:35.397Z,89.86
2018-01-26T18:24:05.218Z,89.93
2018-01-26T18:26:35.075Z,89.94
2018-01-26T18:29:04.873Z,90.23
2018-01-26T18:31:34.693Z,90.51
2018-01-26T18:34:04.651Z,90.64
2018-01-26T18:36:34.325Z,90.59
2018-01-26T18:39:04.148Z,90.98
2018-01-26T18:41:34.133Z,90.58
2018-01-26T18:44:03.614Z,91.22
2018-01-26T18:46:33.709Z,91.30
2018-01-26T18:49:04.925Z,91.60
2018-01-26T18:51:34.797Z,91.33
2018-01-26T18:54:04.736Z,91.72
2018-01-26T18:56:34.558Z,92.15
2018-01-26T18:59:04.386Z,91.24
2018-01-26T19:01:34.192Z,91.64
2018-01-26T19:04:04.104Z,92.38
2018-01-26T19:06:34.194Z,92.47
2018-01-26T19:09:03.290Z,92.13
2018-01-26T19:11:33.102Z,91.95
2018-01-26T19:14:02.963Z,92.11
2018-01-26T19:16:32.536Z,92.67
2018-01-26T19:19:02.377Z,92.51
2018-01-26T19:21:32.261Z,92.86
2018-01-26T19:24:02.155Z,92.79
2018-01-26T19:26:31.934Z,92.95
2018-01-26T19:29:01.640Z,92.67
2018-01-26T19:31:31.278Z,92.85
2018-01-26T19:34:01.096Z,91.93
2018-01-26T19:36:30.990Z,91.76
2018-01-26T19:39:00.817Z,92.00
2018-01-26T19:41:30.410Z,92.29
2018-01-26T19:44:00.476Z,91.87
2018-01-26T19:46:30.297Z,91.77
2018-01-26T19:49:00.139Z,91.93
2018-01-26T19:51:29.961Z,92.06
2018-01-26T19:53:59.989Z,91.73
2018-01-26T19:56:29.521Z,91.46
2018-01-26T19:58:59.339Z,91.85
2018-01-26T20:01:29.157Z,91.79
2018-01-26T20:04:04.849Z,91.74
2018-01-26T20:06:51.128Z,92.36
2018-01-26T20:09:26.651Z,93.14
2018-01-26T20:12:07.911Z,92.72
2018-01-26T20:14:38.145Z,92.49
2018-01-26T20:17:07.627Z,92.31
2018-01-26T20:19:37.758Z,92.86
2018-01-26T20:22:07.564Z,93.36
2018-01-26T20:24:37.464Z,93.98
2018-01-26T20:27:18.845Z,92.96
2018-01-26T20:29:50.140Z,92.98
2018-01-26T20:32:19.439Z,92.99
2018-01-26T20:34:49.327Z,92.66
2018-01-26T20:37:19.133Z,92.40
2018-01-26T20:39:48.952Z,92.38
2018-01-26T20:42:18.589Z,92.63
2018-01-26T20:44:48.361Z,92.71
2018-01-26T20:47:18.166Z,92.40
2018-01-26T20:49:48.029Z,92.54
2018-01-26T20:52:17.824Z,92.77
2018-01-26T20:54:47.648Z,92.38
2018-01-26T20:57:17.476Z,92.81
2018-01-26T20:59:47.287Z,92.93
2018-01-26T21:02:16.908Z,92.47
2018-01-26T21:04:46.719Z,92.93
2018-01-26T21:07:16.607Z,92.98
2018-01-26T21:09:46.422Z,92.84
2018-01-26T21:12:16.249Z,92.55
2018-01-26T21:14:46.057Z,93.18
2018-01-26T21:17:15.881Z,95.52
2018-01-26T21:19:45.706Z,97.80
2018-01-26T21:22:15.922Z,95.26
2018-01-26T21:24:45.840Z,93.52
2018-01-26T21:27:15.986Z,93.38
2018-01-26T21:29:45.840Z,93.81
2018-01-26T21:32:15.765Z,94.00
2018-01-26T21:34:45.907Z,93.75
2018-01-26T21:37:15.902Z,93.98
2018-01-26T21:39:47.557Z,93.79
2018-01-26T21:42:17.642Z,93.88
2018-01-26T21:44:47.320Z,93.49
2018-01-26T21:47:17.153Z,93.51
2018-01-26T21:49:46.997Z,93.60
2018-01-26T21:52:16.894Z,93.55
2018-01-26T21:54:46.848Z,93.30
2018-01-26T21:57:16.720Z,93.52
2018-01-26T21:59:46.689Z,93.32
2018-01-26T22:02:16.351Z,93.12
2018-01-26T22:04:51.652Z,93.23
2018-01-26T22:07:27.250Z,93.84
2018-01-26T22:09:57.143Z,93.92
2018-01-26T22:12:27.252Z,93.76
2018-01-26T22:14:57.167Z,93.62
2018-01-26T22:17:26.964Z,93.25
2018-01-26T22:19:56.848Z,93.61
2018-01-26T22:22:26.715Z,93.85
2018-01-26T22:24:56.083Z,93.76
2018-01-26T22:27:25.965Z,93.15
2018-01-26T22:29:55.826Z,92.84
2018-01-26T22:32:26.030Z,91.56
2018-01-26T22:34:56.137Z,90.28
2018-01-26T22:37:26.085Z,91.39
2018-01-26T22:39:56.026Z,91.65
2018-01-26T22:42:26.078Z,91.68
2018-01-26T22:44:56.018Z,91.85
2018-01-26T22:47:26.144Z,92.01
2018-01-26T22:49:55.466Z,92.61
2018-01-26T22:52:25.347Z,93.59
2018-01-26T22:54:55.976Z,93.89
2018-01-26T22:57:25.896Z,93.53
2018-01-26T22:59:55.790Z,92.32
2018-01-26T23:02:25.869Z,92.12
2018-01-26T23:04:55.605Z,92.04
2018-01-26T23:07:25.477Z,91.69
2018-01-26T23:09:55.116Z,91.62
2018-01-26T23:12:25.006Z,91.45
2018-01-26T23:14:55.485Z,91.87
2018-01-26T23:17:25.406Z,92.33
2018-01-26T23:19:55.302Z,92.12
2018-01-26T23:22:25.236Z,92.40
2018-01-26T23:24:55.127Z,92.55
2018-01-26T23:27:25.052Z,92.62
2018-01-26T23:29:54.633Z,91.83
2018-01-26T23:32:24.593Z,91.60
2018-01-26T23:34:55.115Z,91.36
2018-01-26T23:37:25.090Z,91.15
2018-01-26T23:39:55.658Z,91.07
2018-01-26T23:42:25.670Z,90.58
2018-01-26T23:44:55.830Z,90.49
2018-01-26T23:47:25.795Z,89.86
2018-01-26T23:49:55.956Z,90.07
2018-01-26T23:52:25.824Z,89.58
2018-01-26T23:54:55.808Z,90.24
2018-01-26T23:57:25.755Z,90.63
2018-01-26T23:59:55.648Z,90.45
